Oskaloosa, Kansas
Current Conditions -  °F | °C
As of 12:52 AM on Monday 22 Dec 2014 (Local Time) from KLWC Reporting Station
Overcast Overcast  
Wind Chill: 37°   Ceiling: 1900
Heat Index: 43°   Visibility: 8mi
Dew Point: 39°   Wind: 12mph
Humidity: 86%   Direction: 150°SSE
Pressure: 29.7"   Gusts: NA
Location:  39.22°N, 95.31°W
Report Text: KLWC 220652Z AUTO 15010KT 8SM OVC019 06/04 A2970 RMK AO2 RAB29E41 SLP060 P0000 T00610039
Loading
Personal Weather Stations






























Interactive Weather Map New forecast layout! Learn more

10-Day Weather Forecast

Advertisements
Track Severe Weather on mobile